Main page
METAR-TAF:

METAR-TAF

Airports :

Oil platform

P11-b, Netherlands

latitude: 52-21-36N, longitude: 3-20-30E, elevation: 24 m

Current weather observation

The report was made 36 minutes ago, at 06:55 UTC
Wind 18 kt from the West/Southwest
Temperature 11°C
Humidity 87%
Pressure 991 hPa
Visibility 10 km or more
Few clouds at a height of 900 ft
Scattered clouds at a height of 1100 ft
Broken clouds at a height of 1400 ft

METAR: EHPG 050655Z AUTO 24018KT 9999 FEW009 SCT011 BKN014 11/09 Q0991

Time: 09:31 (07:31 UTC)


TAF: missing

Weather observations and forecasts of more than 4000 airports (METAR and TAF reports).

The available stations are represented by yellow and red dots on the map.

Hover mouse over dot to see the name of the station.

Then click to see weather observations and forecasts.

To change the map : click on the green buttons with a black cross to zoom in, on the green button with a dash to zoom out, or on the green arrows for adjacent maps.


METAR-TAF: